Heathsville, Illinois
Current Conditions -  °F | °C
As of 6:15 PM on Sunday 23 Nov 2014 (Local Time) from KRSV Reporting Station
Heavy Rain Heavy Rain  
Wind Chill: 54°   Ceiling: 600
Heat Index: 54°   Visibility: 5mi
Dew Point: 53°   Wind: 10mph
Humidity: 98%   Direction: 120°ESE
Pressure: 29.32"   Gusts: NA
Location:  38.904°N, 87.665°W
Report Text: KRSV 240015Z AUTO 12009KT 5SM +RA BKN006 BKN015 OVC022 12/12 A2932 RMK AO2 P0008 T01210118
Loading
Personal Weather Stations






























Interactive Weather Map New forecast layout! Learn more

10-Day Weather Forecast

Advertisements
Track Severe Weather on mobile